sensor_id;sensor_type;location;lat;lon;timestamp;P1;durP1;ratioP1;P2;durP2;ratioP2
61739;SDS011;47645;45.288;12.038;2024-03-23T00:54:49;22.6;;;14.5;;
61739;SDS011;47645;45.288;12.038;2024-03-23T01:04:50;15.1;;;10.5;;
61739;SDS011;47645;45.288;12.038;2024-03-23T01:14:50;16.7;;;10.3;;
61739;SDS011;47645;45.288;12.038;2024-03-23T01:24:51;18.6;;;11.1;;
61739;SDS011;47645;45.288;12.038;2024-03-23T01:34:52;18.0;;;10.2;;
61739;SDS011;47645;45.288;12.038;2024-03-23T01:44:52;19.7;;;12.4;;
61739;SDS011;47645;45.288;12.038;2024-03-23T01:54:53;18.1;;;11.1;;
61739;SDS011;47645;45.288;12.038;2024-03-23T02:04:54;15.5;;;10.5;;
61739;SDS011;47645;45.288;12.038;2024-03-23T02:14:54;16.6;;;11.2;;
61739;SDS011;47645;45.288;12.038;2024-03-23T02:24:55;21.5;;;13.9;;
61739;SDS011;47645;45.288;12.038;2024-03-23T02:34:56;25.3;;;16.6;;
61739;SDS011;47645;45.288;12.038;2024-03-23T02:44:57;24.6;;;15.5;;
61739;SDS011;47645;45.288;12.038;2024-03-23T02:54:57;21.1;;;13.7;;
61739;SDS011;47645;45.288;12.038;2024-03-23T03:04:58;18.5;;;12.2;;
61739;SDS011;47645;45.288;12.038;2024-03-23T03:14:58;18.2;;;12.3;;
61739;SDS011;47645;45.288;12.038;2024-03-23T03:25:00;23.4;;;14.3;;
61739;SDS011;47645;45.288;12.038;2024-03-23T03:35:00;20.3;;;12.4;;
61739;SDS011;47645;45.288;12.038;2024-03-23T03:45:00;18.7;;;11.8;;
61739;SDS011;47645;45.288;12.038;2024-03-23T03:55:02;20.7;;;14.1;;
61739;SDS011;47645;45.288;12.038;2024-03-23T04:05:03;19.5;;;11.5;;
61739;SDS011;47645;45.288;12.038;2024-03-23T04:15:04;26.1;;;14.2;;
61739;SDS011;47645;45.288;12.038;2024-03-23T04:25:06;22.1;;;14.2;;
61739;SDS011;47645;45.288;12.038;2024-03-23T04:30:05;20.2;;;12.8;;
61739;SDS011;47645;45.288;12.038;2024-03-23T04:40:05;21.1;;;12.7;;
61739;SDS011;47645;45.288;12.038;2024-03-23T04:50:05;19.2;;;12.4;;
61739;SDS011;47645;45.288;12.038;2024-03-23T05:00:15;23.3;;;13.3;;
61739;SDS011;47645;45.288;12.038;2024-03-23T05:10:06;20.6;;;13.2;;
61739;SDS011;47645;45.288;12.038;2024-03-23T05:20:09;19.6;;;12.0;;
61739;SDS011;47645;45.288;12.038;2024-03-23T05:30:07;21.8;;;13.7;;
61739;SDS011;47645;45.288;12.038;2024-03-23T05:40:09;22.3;;;13.6;;
61739;SDS011;47645;45.288;12.038;2024-03-23T05:50:10;23.4;;;14.5;;
61739;SDS011;47645;45.288;12.038;2024-03-23T06:00:16;24.7;;;14.8;;
61739;SDS011;47645;45.288;12.038;2024-03-23T06:10:09;31.2;;;16.9;;
61739;SDS011;47645;45.288;12.038;2024-03-23T06:20:10;26.3;;;15.2;;
61739;SDS011;47645;45.288;12.038;2024-03-23T06:30:11;28.6;;;17.5;;
61739;SDS011;47645;45.288;12.038;2024-03-23T06:40:11;35.5;;;20.5;;
61739;SDS011;47645;45.288;12.038;2024-03-23T06:50:11;29.0;;;18.2;;
61739;SDS011;47645;45.288;12.038;2024-03-23T07:00:13;37.9;;;23.6;;
61739;SDS011;47645;45.288;12.038;2024-03-23T07:10:13;39.3;;;24.2;;
61739;SDS011;47645;45.288;12.038;2024-03-23T07:20:13;42.0;;;25.8;;
61739;SDS011;47645;45.288;12.038;2024-03-23T07:30:14;37.8;;;25.3;;
61739;SDS011;47645;45.288;12.038;2024-03-23T07:40:14;39.5;;;25.4;;
61739;SDS011;47645;45.288;12.038;2024-03-23T07:50:15;41.5;;;25.9;;
61739;SDS011;47645;45.288;12.038;2024-03-23T08:00:16;38.9;;;25.5;;
61739;SDS011;47645;45.288;12.038;2024-03-23T08:10:18;33.6;;;22.4;;
61739;SDS011;47645;45.288;12.038;2024-03-23T08:20:17;35.3;;;24.4;;
61739;SDS011;47645;45.288;12.038;2024-03-23T08:30:18;36.2;;;22.6;;
61739;SDS011;47645;45.288;12.038;2024-03-23T08:40:18;31.9;;;21.2;;
61739;SDS011;47645;45.288;12.038;2024-03-23T08:50:19;28.0;;;19.0;;
61739;SDS011;47645;45.288;12.038;2024-03-23T09:00:20;27.9;;;18.2;;
61739;SDS011;47645;45.288;12.038;2024-03-23T09:10:22;24.5;;;16.0;;
61739;SDS011;47645;45.288;12.038;2024-03-23T09:20:21;26.3;;;16.5;;
61739;SDS011;47645;45.288;12.038;2024-03-23T09:30:22;25.7;;;16.3;;
61739;SDS011;47645;45.288;12.038;2024-03-23T09:40:23;19.5;;;13.6;;
61739;SDS011;47645;45.288;12.038;2024-03-23T09:50:24;19.6;;;13.5;;
61739;SDS011;47645;45.288;12.038;2024-03-23T10:00:25;21.3;;;14.0;;
61739;SDS011;47645;45.288;12.038;2024-03-23T10:10:26;24.4;;;14.7;;
61739;SDS011;47645;45.288;12.038;2024-03-23T10:20:27;22.1;;;14.0;;
61739;SDS011;47645;45.288;12.038;2024-03-23T10:30:28;22.1;;;15.0;;
61739;SDS011;47645;45.288;12.038;2024-03-23T10:40:29;22.7;;;15.7;;
61739;SDS011;47645;45.288;12.038;2024-03-23T10:50:30;19.6;;;13.4;;
61739;SDS011;47645;45.288;12.038;2024-03-23T11:00:31;18.2;;;12.7;;
61739;SDS011;47645;45.288;12.038;2024-03-23T11:10:34;18.8;;;14.0;;
61739;SDS011;47645;45.288;12.038;2024-03-23T11:20:34;21.5;;;14.6;;
61739;SDS011;47645;45.288;12.038;2024-03-23T11:30:34;17.5;;;12.1;;
61739;SDS011;47645;45.288;12.038;2024-03-23T11:40:36;20.3;;;14.2;;
61739;SDS011;47645;45.288;12.038;2024-03-23T11:50:37;18.7;;;12.0;;
61739;SDS011;47645;45.288;12.038;2024-03-23T12:00:38;17.0;;;11.3;;
61739;SDS011;47645;45.288;12.038;2024-03-23T12:10:39;21.1;;;14.4;;
61739;SDS011;47645;45.288;12.038;2024-03-23T12:20:41;14.6;;;10.4;;
61739;SDS011;47645;45.288;12.038;2024-03-23T12:30:42;15.7;;;10.6;;
61739;SDS011;47645;45.288;12.038;2024-03-23T12:40:45;13.3;;;8.8;;
61739;SDS011;47645;45.288;12.038;2024-03-23T12:50:44;12.4;;;8.1;;
61739;SDS011;47645;45.288;12.038;2024-03-23T13:00:46;8.5;;;5.7;;
61739;SDS011;47645;45.288;12.038;2024-03-23T13:10:47;11.7;;;8.3;;
61739;SDS011;47645;45.288;12.038;2024-03-23T13:20:48;8.7;;;6.5;;
61739;SDS011;47645;45.288;12.038;2024-03-23T13:30:51;10.9;;;6.4;;
61739;SDS011;47645;45.288;12.038;2024-03-23T13:40:51;8.6;;;6.4;;
61739;SDS011;47645;45.288;12.038;2024-03-23T13:51:00;9.9;;;6.6;;
61739;SDS011;47645;45.288;12.038;2024-03-23T14:00:56;8.9;;;6.2;;
61739;SDS011;47645;45.288;12.038;2024-03-23T14:10:56;8.2;;;5.5;;
61739;SDS011;47645;45.288;12.038;2024-03-23T14:20:59;7.1;;;5.2;;
61739;SDS011;47645;45.288;12.038;2024-03-23T14:30:59;8.4;;;6.0;;
61739;SDS011;47645;45.288;12.038;2024-03-23T14:40:59;9.6;;;5.5;;
61739;SDS011;47645;45.288;12.038;2024-03-23T14:51:00;11.4;;;6.3;;
61739;SDS011;47645;45.288;12.038;2024-03-23T15:01:02;11.7;;;7.4;;
61739;SDS011;47645;45.288;12.038;2024-03-23T15:11:05;9.5;;;6.8;;
61739;SDS011;47645;45.288;12.038;2024-03-23T15:21:06;11.3;;;7.5;;
61739;SDS011;47645;45.288;12.038;2024-03-23T15:31:06;12.5;;;8.9;;
61739;SDS011;47645;45.288;12.038;2024-03-23T15:41:07;13.8;;;8.5;;
61739;SDS011;47645;45.288;12.038;2024-03-23T15:51:08;11.5;;;8.2;;
61739;SDS011;47645;45.288;12.038;2024-03-23T16:01:10;13.9;;;9.0;;
61739;SDS011;47645;45.288;12.038;2024-03-23T16:11:11;15.0;;;9.8;;
61739;SDS011;47645;45.288;12.038;2024-03-23T16:21:12;15.3;;;10.0;;
61739;SDS011;47645;45.288;12.038;2024-03-23T16:31:13;17.3;;;11.5;;
61739;SDS011;47645;45.288;12.038;2024-03-23T16:41:15;16.4;;;11.1;;
61739;SDS011;47645;45.288;12.038;2024-03-23T16:51:15;22.4;;;13.4;;
61739;SDS011;47645;45.288;12.038;2024-03-23T17:01:18;20.1;;;12.0;;
61739;SDS011;47645;45.288;12.038;2024-03-23T17:11:18;15.0;;;9.6;;
61739;SDS011;47645;45.288;12.038;2024-03-23T17:21:19;15.3;;;10.2;;
61739;SDS011;47645;45.288;12.038;2024-03-23T17:31:20;18.1;;;11.4;;
61739;SDS011;47645;45.288;12.038;2024-03-23T17:41:21;18.8;;;11.9;;
61739;SDS011;47645;45.288;12.038;2024-03-23T17:51:23;16.4;;;11.0;;
61739;SDS011;47645;45.288;12.038;2024-03-23T18:01:23;24.3;;;15.1;;
61739;SDS011;47645;45.288;12.038;2024-03-23T18:11:25;22.1;;;12.9;;
61739;SDS011;47645;45.288;12.038;2024-03-23T18:21:27;22.4;;;14.1;;
61739;SDS011;47645;45.288;12.038;2024-03-23T18:31:26;15.1;;;10.3;;
61739;SDS011;47645;45.288;12.038;2024-03-23T18:41:29;13.2;;;9.0;;
61739;SDS011;47645;45.288;12.038;2024-03-23T18:51:29;10.3;;;6.8;;
61739;SDS011;47645;45.288;12.038;2024-03-23T19:01:29;14.9;;;7.4;;
61739;SDS011;47645;45.288;12.038;2024-03-23T19:11:30;11.8;;;6.7;;
61739;SDS011;47645;45.288;12.038;2024-03-23T19:21:32;9.8;;;5.7;;
61739;SDS011;47645;45.288;12.038;2024-03-23T19:31:33;10.9;;;5.0;;
61739;SDS011;47645;45.288;12.038;2024-03-23T19:41:33;8.6;;;4.8;;
61739;SDS011;47645;45.288;12.038;2024-03-23T19:51:34;8.8;;;4.9;;
61739;SDS011;47645;45.288;12.038;2024-03-23T20:01:35;10.6;;;5.2;;
61739;SDS011;47645;45.288;12.038;2024-03-23T20:11:36;10.0;;;5.0;;
61739;SDS011;47645;45.288;12.038;2024-03-23T20:21:37;11.0;;;5.1;;
61739;SDS011;47645;45.288;12.038;2024-03-23T20:31:38;10.6;;;5.5;;
61739;SDS011;47645;45.288;12.038;2024-03-23T20:41:39;9.1;;;4.9;;
61739;SDS011;47645;45.288;12.038;2024-03-23T20:51:41;8.8;;;4.8;;
61739;SDS011;47645;45.288;12.038;2024-03-23T21:01:41;10.9;;;5.2;;
61739;SDS011;47645;45.288;12.038;2024-03-23T21:11:43;10.7;;;4.9;;
61739;SDS011;47645;45.288;12.038;2024-03-23T21:21:43;10.2;;;4.3;;
61739;SDS011;47645;45.288;12.038;2024-03-23T21:31:44;10.5;;;6.6;;
61739;SDS011;47645;45.288;12.038;2024-03-23T21:41:45;12.2;;;6.0;;
61739;SDS011;47645;45.288;12.038;2024-03-23T21:51:48;12.2;;;5.6;;
61739;SDS011;47645;45.288;12.038;2024-03-23T22:01:47;8.9;;;4.9;;
61739;SDS011;47645;45.288;12.038;2024-03-23T22:11:48;8.5;;;4.7;;
61739;SDS011;47645;45.288;12.038;2024-03-23T22:21:49;9.0;;;4.3;;
61739;SDS011;47645;45.288;12.038;2024-03-23T22:31:50;8.6;;;4.3;;
61739;SDS011;47645;45.288;12.038;2024-03-23T22:41:51;10.4;;;3.9;;
61739;SDS011;47645;45.288;12.038;2024-03-23T22:51:52;9.0;;;4.4;;
61739;SDS011;47645;45.288;12.038;2024-03-23T23:01:53;9.5;;;4.9;;
61739;SDS011;47645;45.288;12.038;2024-03-23T23:11:54;9.4;;;4.6;;
61739;SDS011;47645;45.288;12.038;2024-03-23T23:21:55;10.4;;;4.7;;
61739;SDS011;47645;45.288;12.038;2024-03-23T23:31:55;9.0;;;4.6;;
61739;SDS011;47645;45.288;12.038;2024-03-23T23:41:56;8.7;;;4.9;;
61739;SDS011;47645;45.288;12.038;2024-03-23T23:51:57;11.7;;;4.8;;
